Panna Maria, Texas
Current Conditions -  °F | °C
As of 11:35 AM on Friday 19 Dec 2014 (Local Time) from KPEZ Reporting Station
Broken Clouds Broken Clouds  
Wind Chill: 60°   Ceiling: 3300
Heat Index: 60°   Visibility: 10mi
Dew Point: 51°   Wind: 14mph
Humidity: 72%   Direction: 30°NNE
Pressure: 30.11"   Gusts: 18mph
Location:  28.96°N, 97.9°W
Report Text: KPEZ 191735Z AUTO 03012G16KT 10SM BKN033 BKN070 BKN090 16/11 A3011 RMK AO2 T01560106
Loading
Personal Weather Stations






























Interactive Weather Map New forecast layout! Learn more

10-Day Weather Forecast

Advertisements
Track Severe Weather on mobile